Time;durP1;ratioP1;P1;durP2;ratioP2;P2;SDS_P1;SDS_P2;PMS_P1;PMS_P2;Temp;Humidity;BMP_temperature;BMP_pressure;BME280_temperature;BME280_humidity;BME280_pressure;Samples;Min_cycle;Max_cycle;Signal;HPM_P1;HPM_P2
2022/09/08 00:00:43;;;;;;;4.18;2.10;;;16.00;92.70;;;;;;5102114;28;20043;-67
2022/09/08 00:03:11;;;;;;;4.10;2.40;;;16.00;92.90;;;;;;5109885;28;20032;-67
2022/09/08 00:05:48;;;;;;;5.40;2.60;;;15.90;92.40;;;;;;5111172;28;20024;-67
2022/09/08 00:08:14;;;;;;;7.10;2.67;;;15.90;91.00;;;;;;5110205;28;20027;-67
2022/09/08 00:10:40;;;;;;;5.85;2.70;;;15.90;89.60;;;;;;5103280;28;20020;-67
2022/09/08 00:13:07;;;;;;;7.82;2.50;;;15.80;88.70;;;;;;5112181;28;20020;-67
2022/09/08 00:15:36;;;;;;;6.70;2.10;;;15.80;87.90;;;;;;5116308;28;20069;-68
2022/09/08 00:18:02;;;;;;;3.47;1.70;;;15.80;89.00;;;;;;5112046;28;20451;-68
2022/09/08 00:20:28;;;;;;;3.50;1.67;;;15.80;93.10;;;;;;5107127;28;20023;-67
2022/09/08 00:22:54;;;;;;;4.05;1.65;;;15.90;93.90;;;;;;5103128;28;20015;-67
2022/09/08 00:25:20;;;;;;;4.68;1.77;;;15.90;94.00;;;;;;5111501;28;20024;-67
2022/09/08 00:27:45;;;;;;;5.28;1.88;;;16.00;94.40;;;;;;5103282;28;20020;-67
2022/09/08 00:30:11;;;;;;;4.82;1.92;;;16.00;94.70;;;;;;5108138;28;20030;-67
2022/09/08 00:32:37;;;;;;;5.30;1.70;;;16.00;94.20;;;;;;5110691;28;20033;-67
2022/09/08 00:35:07;;;;;;;3.53;1.80;;;16.00;94.80;;;;;;5107451;28;20028;-67
2022/09/08 00:37:34;;;;;;;4.40;2.10;;;16.00;95.00;;;;;;5103978;28;20035;-67
2022/09/08 00:40:00;;;;;;;4.38;1.65;;;16.00;94.90;;;;;;5107343;28;20020;-67
2022/09/08 00:42:26;;;;;;;4.25;1.70;;;16.10;95.70;;;;;;5109441;28;20097;-67
2022/09/08 00:44:53;;;;;;;2.67;1.70;;;16.10;95.60;;;;;;5115327;28;20023;-66
2022/09/08 00:47:29;;;;;;;3.10;1.60;;;16.20;95.60;;;;;;5105802;28;20027;-66
2022/09/08 00:50:06;;;;;;;3.40;1.67;;;16.20;95.50;;;;;;5104121;28;20020;-66
2022/09/08 00:52:42;;;;;;;3.45;1.80;;;16.20;96.40;;;;;;5106699;28;20020;-66
2022/09/08 00:55:10;;;;;;;3.05;1.52;;;16.20;96.40;;;;;;5103540;28;20127;-65
2022/09/08 00:57:36;;;;;;;4.32;1.90;;;16.20;95.50;;;;;;5106629;28;20740;-67
2022/09/08 01:00:04;;;;;;;3.42;1.80;;;16.20;96.20;;;;;;5108076;28;20028;-68
2022/09/08 01:02:30;;;;;;;3.50;1.70;;;16.20;96.00;;;;;;5111747;28;20031;-67
2022/09/08 01:05:01;;;;;;;4.43;1.98;;;16.30;96.90;;;;;;5098996;28;20042;-67
2022/09/08 01:13:37;;;;;;;3.17;1.50;;;16.30;96.80;;;;;;5057523;28;20061;-67
2022/09/08 01:16:06;;;;;;;3.95;1.98;;;16.30;97.10;;;;;;5100371;28;20826;-67
2022/09/08 01:18:33;;;;;;;3.20;1.40;;;16.40;97.40;;;;;;5099876;28;20023;-67
2022/09/08 01:20:59;;;;;;;4.68;1.80;;;16.40;97.50;;;;;;5093281;28;20409;-67
2022/09/08 01:23:37;;;;;;;3.25;1.50;;;16.50;97.40;;;;;;5091815;28;20027;-67
2022/09/08 01:26:33;;;;;;;5.07;1.50;;;16.40;97.60;;;;;;5095418;28;20028;-67
2022/09/08 01:29:02;;;;;;;3.83;1.60;;;16.40;96.90;;;;;;5098831;28;20024;-67
2022/09/08 01:31:32;;;;;;;3.47;1.40;;;16.40;96.50;;;;;;5102555;28;20038;-67
2022/09/08 01:33:59;;;;;;;3.13;1.50;;;16.30;96.60;;;;;;5111832;28;20050;-67
2022/09/08 01:36:26;;;;;;;3.22;1.73;;;16.30;96.70;;;;;;5108978;28;20437;-67
2022/09/08 01:38:52;;;;;;;4.68;1.67;;;16.30;96.10;;;;;;5089529;28;20502;-67
2022/09/08 01:41:18;;;;;;;3.17;1.60;;;16.20;95.90;;;;;;5105774;28;20059;-67
2022/09/08 01:43:43;;;;;;;6.03;1.42;;;16.20;97.10;;;;;;5101257;28;20081;-67
2022/09/08 01:46:09;;;;;;;3.22;1.35;;;16.10;95.60;;;;;;5107359;28;20316;-67
2022/09/08 01:48:35;;;;;;;3.17;1.40;;;16.10;95.50;;;;;;5095562;28;20559;-67
2022/09/08 01:51:04;;;;;;;2.65;1.30;;;16.00;95.40;;;;;;5106513;28;20035;-67
2022/09/08 01:53:30;;;;;;;3.53;1.40;;;16.00;95.20;;;;;;5101963;28;20441;-67
2022/09/08 01:55:56;;;;;;;3.65;1.50;;;15.90;95.60;;;;;;5099018;28;20069;-68
2022/09/08 01:58:22;;;;;;;2.88;1.30;;;15.80;95.10;;;;;;5104447;28;20102;-67
2022/09/08 02:00:48;;;;;;;3.72;1.30;;;15.70;93.70;;;;;;5105469;28;20035;-67
2022/09/08 02:03:14;;;;;;;4.32;1.65;;;15.60;93.80;;;;;;5106153;28;20494;-67
2022/09/08 02:05:41;;;;;;;4.93;1.33;;;15.60;93.30;;;;;;5100922;28;20103;-67
2022/09/08 02:08:08;;;;;;;4.05;1.50;;;15.50;93.60;;;;;;5110623;28;20019;-68
2022/09/08 02:10:34;;;;;;;3.72;1.50;;;15.50;93.40;;;;;;5100801;28;20326;-67
2022/09/08 02:13:01;;;;;;;4.30;1.35;;;15.40;92.10;;;;;;5105767;28;20353;-67
2022/09/08 02:15:27;;;;;;;2.83;1.23;;;15.40;92.80;;;;;;5108652;28;20028;-67
2022/09/08 02:17:53;;;;;;;4.97;1.55;;;15.40;93.00;;;;;;5108737;28;20024;-67
2022/09/08 02:20:20;;;;;;;2.83;1.50;;;15.40;92.40;;;;;;5111546;28;20093;-68
2022/09/08 02:22:45;;;;;;;3.72;1.30;;;15.40;93.40;;;;;;5100255;28;20051;-68
2022/09/08 02:25:11;;;;;;;3.10;1.30;;;15.40;94.20;;;;;;5108905;28;20066;-68
2022/09/08 02:27:36;;;;;;;4.00;1.45;;;15.40;93.00;;;;;;5098888;28;20733;-68
2022/09/08 02:30:02;;;;;;;4.15;1.38;;;15.40;92.80;;;;;;5102529;28;20016;-68
2022/09/08 02:32:28;;;;;;;3.75;1.60;;;15.40;92.80;;;;;;5114529;28;20023;-68
2022/09/08 02:34:54;;;;;;;4.07;1.60;;;15.30;90.90;;;;;;5108937;28;20039;-68
2022/09/08 02:37:19;;;;;;;3.83;1.52;;;15.30;91.00;;;;;;5105862;28;20023;-69
2022/09/08 02:39:45;;;;;;;4.95;1.67;;;15.20;90.20;;;;;;5107402;28;20027;-69
2022/09/08 02:42:11;;;;;;;3.97;1.88;;;15.20;89.70;;;;;;5104029;28;20076;-69
2022/09/08 02:44:38;;;;;;;6.35;1.77;;;15.20;88.30;;;;;;5105559;28;20028;-69
2022/09/08 02:47:04;;;;;;;3.35;1.70;;;15.20;87.50;;;;;;5103996;28;20020;-69
2022/09/08 02:49:32;;;;;;;3.85;1.67;;;15.20;86.30;;;;;;5114961;28;20313;-69
2022/09/08 02:51:58;;;;;;;4.10;1.80;;;15.20;86.60;;;;;;5110129;28;20088;-70
2022/09/08 02:54:24;;;;;;;3.53;1.70;;;15.20;86.40;;;;;;5102261;28;20075;-69
2022/09/08 02:56:50;;;;;;;3.83;1.65;;;15.10;87.00;;;;;;5103144;28;20020;-69
2022/09/08 02:59:15;;;;;;;5.47;2.03;;;15.10;89.50;;;;;;5106977;28;20023;-70
2022/09/08 03:01:43;;;;;;;3.72;1.33;;;15.20;89.30;;;;;;5106344;28;20023;-70
2022/09/08 03:04:10;;;;;;;4.15;1.35;;;15.20;89.80;;;;;;5100997;28;20019;-70
2022/09/08 03:06:35;;;;;;;3.35;1.73;;;15.20;90.00;;;;;;5109958;28;20328;-70
2022/09/08 03:09:01;;;;;;;4.40;1.80;;;15.20;90.60;;;;;;5103502;28;20021;-70
2022/09/08 03:11:28;;;;;;;2.60;1.50;;;15.10;90.30;;;;;;5102310;28;20020;-70
2022/09/08 03:13:54;;;;;;;4.82;1.67;;;15.10;90.20;;;;;;5105253;28;20024;-70
2022/09/08 03:16:20;;;;;;;3.67;1.50;;;15.10;90.00;;;;;;5113529;28;20087;-70
2022/09/08 03:18:46;;;;;;;2.80;1.40;;;15.10;89.40;;;;;;5111669;28;20092;-70
2022/09/08 03:21:14;;;;;;;2.63;1.35;;;15.00;90.20;;;;;;5109371;28;20451;-70
2022/09/08 03:23:40;;;;;;;2.63;1.27;;;15.00;89.90;;;;;;5104221;28;20035;-70
2022/09/08 03:26:10;;;;;;;2.65;1.05;;;15.00;91.10;;;;;;5109138;28;20316;-70
2022/09/08 03:28:39;;;;;;;4.60;1.38;;;15.00;92.30;;;;;;5112319;28;20332;-70
2022/09/08 03:31:10;;;;;;;3.08;1.40;;;15.00;92.40;;;;;;5104266;28;20306;-69
2022/09/08 03:33:36;;;;;;;2.85;1.20;;;15.00;92.40;;;;;;5105663;28;20150;-69
2022/09/08 03:36:07;;;;;;;2.05;1.10;;;14.90;91.90;;;;;;5102896;28;20370;-70
2022/09/08 03:38:34;;;;;;;2.60;1.20;;;14.90;93.60;;;;;;5108482;28;20436;-69
2022/09/08 03:41:10;;;;;;;2.95;1.00;;;14.90;92.50;;;;;;5131414;27;20582;-69
2022/09/08 03:43:41;;;;;;;2.80;1.20;;;14.90;93.20;;;;;;5113528;28;20023;-69
2022/09/08 03:46:07;;;;;;;10.38;1.27;;;14.80;93.80;;;;;;5105454;28;20036;-68
2022/09/08 03:48:34;;;;;;;2.40;1.20;;;14.80;93.20;;;;;;5117753;28;20514;-68
2022/09/08 03:51:13;;;;;;;2.25;1.30;;;14.80;92.10;;;;;;5115220;28;20039;-70
2022/09/08 03:53:40;;;;;;;2.00;1.00;;;14.80;93.00;;;;;;5108441;28;20023;-70
2022/09/08 03:56:10;;;;;;;2.65;1.00;;;14.80;92.80;;;;;;5106797;28;20329;-70
2022/09/08 03:58:37;;;;;;;2.33;1.20;;;14.80;93.40;;;;;;5104796;28;20027;-69
2022/09/08 04:01:11;;;;;;;2.92;1.20;;;14.80;93.20;;;;;;5097863;28;20039;-69
2022/09/08 04:03:37;;;;;;;;;;;14.80;92.80;;;;;;5100985;28;20403;-70
2022/09/08 04:06:03;;;;;;;2.22;1.10;;;14.80;92.30;;;;;;5101062;28;19920;-70
2022/09/08 04:08:29;;;;;;;2.80;1.20;;;14.80;92.30;;;;;;5112954;28;20027;-69
2022/09/08 04:10:55;;;;;;;2.58;1.10;;;14.80;93.30;;;;;;5108206;28;20016;-70
2022/09/08 04:13:21;;;;;;;2.58;1.10;;;14.80;94.80;;;;;;5109993;28;20289;-69
2022/09/08 04:15:47;;;;;;;1.85;1.10;;;14.90;95.60;;;;;;5113276;28;20032;-69
2022/09/08 04:18:12;;;;;;;2.50;1.00;;;14.90;94.80;;;;;;5103428;28;20031;-69
2022/09/08 04:20:39;;;;;;;2.10;1.10;;;14.90;94.80;;;;;;5104512;28;20051;-69
2022/09/08 04:23:05;;;;;;;3.80;1.30;;;14.90;95.00;;;;;;5107702;28;20062;-69
2022/09/08 04:25:32;;;;;;;3.05;1.20;;;14.90;94.80;;;;;;5112380;28;20028;-69
2022/09/08 04:28:00;;;;;;;1.73;1.00;;;14.90;94.70;;;;;;5105382;28;20020;-69
2022/09/08 04:30:28;;;;;;;1.90;1.27;;;14.80;94.10;;;;;;5098250;28;20472;-69
2022/09/08 04:32:54;;;;;;;2.65;1.15;;;14.90;94.30;;;;;;5109629;28;20027;-69
2022/09/08 04:35:19;;;;;;;1.92;1.13;;;14.80;93.70;;;;;;5117098;28;20031;-69
2022/09/08 04:37:45;;;;;;;3.47;1.20;;;14.80;94.90;;;;;;5103543;28;20111;-69
2022/09/08 04:40:11;;;;;;;2.75;1.13;;;14.80;93.90;;;;;;5105423;28;20104;-69
2022/09/08 04:42:36;;;;;;;1.90;1.00;;;14.90;94.10;;;;;;5101651;28;20103;-69
2022/09/08 04:45:02;;;;;;;2.85;1.20;;;14.90;94.20;;;;;;5102928;28;20077;-68
2022/09/08 04:47:32;;;;;;;2.03;1.00;;;15.00;96.30;;;;;;5101233;28;20059;-70
2022/09/08 04:49:59;;;;;;;2.63;1.15;;;15.00;96.90;;;;;;5117025;28;20102;-69
2022/09/08 04:52:27;;;;;;;2.00;1.00;;;15.00;95.60;;;;;;5110083;28;20062;-69
2022/09/08 04:54:53;;;;;;;1.95;1.00;;;15.10;97.00;;;;;;5116010;28;20079;-69
2022/09/08 04:57:20;;;;;;;2.75;1.05;;;15.10;95.50;;;;;;5107760;28;20116;-69
2022/09/08 04:59:46;;;;;;;2.10;1.10;;;15.00;95.30;;;;;;5103436;28;20043;-69
2022/09/08 05:02:13;;;;;;;3.85;1.30;;;15.10;96.20;;;;;;5106483;28;20062;-69
2022/09/08 05:04:38;;;;;;;3.63;1.10;;;15.10;95.80;;;;;;5113564;28;20507;-69
2022/09/08 05:07:04;;;;;;;4.63;1.10;;;15.00;95.10;;;;;;5111381;28;20106;-69
2022/09/08 05:09:29;;;;;;;2.47;1.17;;;15.10;96.00;;;;;;5107155;28;20024;-69
2022/09/08 05:11:55;;;;;;;2.45;1.10;;;15.10;95.60;;;;;;5112338;28;20107;-69
2022/09/08 05:14:21;;;;;;;3.15;1.10;;;15.10;96.10;;;;;;5111226;28;20408;-69
2022/09/08 05:16:46;;;;;;;2.15;1.02;;;15.10;96.20;;;;;;5105294;28;20035;-69
2022/09/08 05:19:13;;;;;;;2.67;1.08;;;15.10;95.60;;;;;;5111400;28;20019;-69
2022/09/08 05:21:38;;;;;;;3.15;1.25;;;15.00;94.70;;;;;;5110981;28;20321;-69
2022/09/08 05:24:05;;;;;;;2.35;1.10;;;15.00;94.90;;;;;;5103603;28;20035;-69
2022/09/08 05:26:31;;;;;;;3.05;1.30;;;14.90;93.90;;;;;;5109010;28;20417;-70
2022/09/08 05:28:58;;;;;;;4.38;1.30;;;15.00;93.80;;;;;;5111967;28;20032;-69
2022/09/08 05:31:26;;;;;;;4.68;1.27;;;14.90;93.30;;;;;;5110730;28;20028;-70
2022/09/08 05:33:54;;;;;;;3.60;1.38;;;14.80;92.10;;;;;;5110733;28;20030;-69
2022/09/08 05:36:23;;;;;;;2.80;1.20;;;14.80;91.40;;;;;;5107606;28;20047;-69
2022/09/08 05:38:50;;;;;;;4.20;1.33;;;14.80;90.70;;;;;;5102124;28;20020;-69
2022/09/08 05:41:17;;;;;;;2.33;1.20;;;14.80;92.50;;;;;;5094825;28;20032;-70
2022/09/08 05:43:43;;;;;;;2.47;1.20;;;14.80;92.40;;;;;;5101576;28;20343;-70
2022/09/08 05:46:10;;;;;;;2.22;1.02;;;14.80;91.80;;;;;;5112951;28;20298;-70
2022/09/08 05:48:36;;;;;;;2.58;1.30;;;14.90;93.20;;;;;;5108092;28;20314;-69
2022/09/08 05:51:08;;;;;;;3.25;1.30;;;14.90;93.00;;;;;;5087442;28;20031;-69
2022/09/08 05:53:34;;;;;;;2.95;1.27;;;14.90;92.90;;;;;;5105667;28;20027;-69
2022/09/08 05:56:02;;;;;;;3.42;1.27;;;14.80;92.20;;;;;;5110133;28;20089;-70
2022/09/08 05:58:29;;;;;;;5.55;1.20;;;14.80;92.10;;;;;;5108684;28;20032;-70
2022/09/08 06:01:00;;;;;;;2.35;1.10;;;14.80;92.90;;;;;;5110454;28;20055;-71
2022/09/08 06:03:27;;;;;;;3.47;1.30;;;14.80;91.30;;;;;;5091087;28;20031;-71
2022/09/08 06:05:54;;;;;;;2.72;1.33;;;14.80;90.50;;;;;;5105487;28;20028;-71
2022/09/08 06:08:21;;;;;;;3.35;1.40;;;14.70;90.40;;;;;;5102235;28;20024;-71
2022/09/08 06:10:53;;;;;;;5.40;1.58;;;14.70;88.90;;;;;;5107804;28;20093;-71
2022/09/08 06:13:21;;;;;;;3.35;1.58;;;14.80;88.50;;;;;;5096627;28;20019;-71
2022/09/08 06:15:47;;;;;;;4.45;1.65;;;14.80;87.10;;;;;;5113172;28;20454;-71
2022/09/08 06:18:13;;;;;;;5.00;1.52;;;14.80;85.90;;;;;;5099061;28;20035;-72
2022/09/08 06:20:38;;;;;;;6.30;1.60;;;14.90;85.30;;;;;;5113856;28;20028;-72
2022/09/08 06:23:04;;;;;;;3.42;1.52;;;14.90;84.80;;;;;;5103312;28;20547;-72
2022/09/08 06:25:30;;;;;;;6.15;2.13;;;14.90;84.50;;;;;;5100921;28;20422;-72
2022/09/08 06:28:10;;;;;;;5.78;3.00;;;14.80;84.20;;;;;;5113575;28;20034;-73
2022/09/08 06:30:36;;;;;;;5.53;3.10;;;14.70;83.30;;;;;;5115955;28;20035;-73
2022/09/08 06:33:13;;;;;;;4.78;2.33;;;14.70;81.10;;;;;;5096503;28;20077;-73
2022/09/08 06:36:03;;;;;;;3.90;2.08;;;14.60;80.90;;;;;;5096735;28;20383;-72
2022/09/08 06:38:41;;;;;;;4.10;1.67;;;14.60;80.30;;;;;;5097143;28;20079;-72
2022/09/08 06:41:14;;;;;;;3.78;1.80;;;14.50;80.60;;;;;;5111942;28;20558;-72
2022/09/08 06:43:46;;;;;;;3.83;1.90;;;14.30;83.20;;;;;;5097872;28;20354;-71
2022/09/08 06:46:21;;;;;;;4.22;1.58;;;14.10;83.00;;;;;;5115176;28;20019;-73
2022/09/08 06:48:47;;;;;;;6.50;2.17;;;14.00;83.00;;;;;;5115859;28;20032;-73
2022/09/08 06:51:26;;;;;;;7.35;2.42;;;13.90;82.30;;;;;;5115015;28;20420;-73
2022/09/08 06:54:08;;;;;;;3.75;1.50;;;13.80;82.00;;;;;;5098619;28;20034;-73
2022/09/08 06:57:06;;;;;;;5.78;1.90;;;13.80;80.80;;;;;;5108837;28;20103;-73
2022/09/08 06:59:34;;;;;;;4.88;2.30;;;13.80;81.40;;;;;;5083601;28;20413;-74
2022/09/08 07:02:21;;;;;;;3.47;1.88;;;13.70;80.90;;;;;;5109202;28;20039;-73
2022/09/08 07:05:10;;;;;;;4.13;1.70;;;13.70;80.10;;;;;;5095066;28;20328;-72
2022/09/08 07:07:58;;;;;;;3.85;1.50;;;13.70;80.40;;;;;;5103772;28;20028;-72
2022/09/08 07:11:02;;;;;;;2.70;1.30;;;13.70;79.70;;;;;;5097961;28;20070;-72
2022/09/08 07:13:35;;;;;;;4.15;1.40;;;13.80;78.90;;;;;;5072513;28;20318;-72
2022/09/08 07:16:41;;;;;;;4.95;1.60;;;13.90;78.50;;;;;;5115195;28;20037;-72
2022/09/08 07:19:25;;;;;;;3.25;1.70;;;14.10;78.30;;;;;;5104509;28;20115;-71
2022/09/08 07:22:05;;;;;;;4.88;1.35;;;14.20;78.20;;;;;;5114202;28;20520;-71
2022/09/08 07:24:36;;;;;;;2.70;1.20;;;14.30;78.30;;;;;;5105653;28;20032;-71
2022/09/08 07:27:06;;;;;;;4.00;1.45;;;14.40;78.90;;;;;;5079208;28;20379;-71
2022/09/08 07:29:56;;;;;;;2.80;1.25;;;14.50;80.10;;;;;;5099413;28;20027;-71
2022/09/08 07:32:42;;;;;;;2.90;1.30;;;14.40;83.70;;;;;;5116056;28;20019;-70
2022/09/08 07:35:33;;;;;;;3.42;1.60;;;14.40;84.00;;;;;;5086624;28;20024;-70
2022/09/08 07:38:06;;;;;;;3.60;2.03;;;14.60;86.50;;;;;;5070412;28;20078;-70
2022/09/08 07:40:45;;;;;;;2.72;1.30;;;14.80;85.30;;;;;;5109242;28;20036;-70
2022/09/08 07:43:13;;;;;;;3.20;1.80;;;14.90;89.10;;;;;;5109770;28;20107;-70
2022/09/08 07:46:01;;;;;;;3.25;1.48;;;15.10;87.90;;;;;;5110639;28;20031;-70
2022/09/08 07:48:38;;;;;;;3.60;1.70;;;15.50;87.30;;;;;;5095579;28;20145;-70
2022/09/08 07:51:04;;;;;;;3.05;1.30;;;15.60;91.00;;;;;;5112226;28;20039;-70
2022/09/08 07:53:59;;;;;;;3.03;1.58;;;15.80;91.70;;;;;;5115278;28;20016;-70
2022/09/08 07:56:35;;;;;;;4.05;1.50;;;16.00;94.00;;;;;;5090188;28;20097;-70
2022/09/08 07:59:23;;;;;;;3.90;1.33;;;16.20;93.20;;;;;;5103467;28;20408;-70
2022/09/08 08:01:57;;;;;;;2.78;1.17;;;16.70;92.80;;;;;;5096813;28;20053;-70
2022/09/08 08:05:01;;;;;;;3.97;1.35;;;17.10;97.60;;;;;;5096689;28;20024;-70
2022/09/08 08:07:47;;;;;;;2.58;1.20;;;17.30;98.00;;;;;;5098154;28;20016;-70
2022/09/08 08:10:27;;;;;;;3.92;1.25;;;17.80;98.00;;;;;;5108088;28;20051;-69
2022/09/08 08:13:19;;;;;;;4.93;1.40;;;18.80;97.70;;;;;;5109445;28;20037;-70
2022/09/08 08:16:09;;;;;;;2.80;1.02;;;19.60;97.30;;;;;;5115169;28;20505;-69
2022/09/08 08:18:55;;;;;;;2.78;1.00;;;20.90;95.00;;;;;;5103105;28;20083;-69
2022/09/08 08:21:38;;;;;;;2.45;1.05;;;20.10;92.40;;;;;;5097646;28;20059;-69
2022/09/08 08:24:29;;;;;;;2.95;1.33;;;18.90;95.50;;;;;;5111549;28;20103;-69
2022/09/08 08:27:00;;;;;;;4.07;1.45;;;18.40;97.30;;;;;;5099132;28;20020;-69
2022/09/08 08:29:41;;;;;;;3.08;1.30;;;18.20;96.90;;;;;;5115380;28;20027;-69
2022/09/08 08:32:16;;;;;;;4.43;1.63;;;18.00;97.80;;;;;;5116500;28;20443;-69
2022/09/08 08:34:57;;;;;;;2.67;1.30;;;18.10;98.00;;;;;;5119274;28;20098;-69
2022/09/08 08:37:28;;;;;;;3.55;1.35;;;18.10;97.60;;;;;;5116335;28;20147;-69
2022/09/08 08:40:00;;;;;;;4.57;1.60;;;17.80;97.60;;;;;;5086041;28;20020;-69
2022/09/08 08:43:02;;;;;;;4.75;1.50;;;17.60;98.00;;;;;;5103483;28;20032;-69
2022/09/08 08:46:01;;;;;;;3.50;1.75;;;17.30;98.00;;;;;;5101407;28;20024;-69
2022/09/08 08:48:56;;;;;;;4.38;1.70;;;16.80;97.30;;;;;;5119027;28;20024;-69
2022/09/08 08:51:47;;;;;;;4.75;2.00;;;16.50;95.10;;;;;;5116907;28;20409;-69
2022/09/08 08:54:23;;;;;;;3.85;1.85;;;16.30;92.90;;;;;;5090413;28;20327;-69
2022/09/08 08:57:03;;;;;;;5.20;2.45;;;16.10;92.60;;;;;;5099070;28;20040;-69
2022/09/08 08:59:59;;;;;;;5.40;1.70;;;16.40;90.20;;;;;;5112683;28;20034;-69
2022/09/08 09:02:39;;;;;;;4.22;1.90;;;17.50;92.00;;;;;;5114444;28;20417;-69
2022/09/08 09:05:19;;;;;;;4.63;2.25;;;18.10;97.60;;;;;;5118606;28;20028;-69
2022/09/08 09:08:08;;;;;;;4.80;2.00;;;18.10;97.10;;;;;;5117519;28;20047;-69
2022/09/08 09:10:52;;;;;;;5.45;1.38;;;18.00;98.00;;;;;;5116319;28;20016;-69
2022/09/08 09:13:53;;;;;;;;;;;18.50;98.00;;;;;;5102272;28;20024;-69
2022/09/08 09:16:39;;;;;;;4.97;1.95;;;19.70;98.00;;;;;;5053531;28;19909;-69
2022/09/08 09:19:32;;;;;;;3.45;1.50;;;21.10;96.40;;;;;;5062738;28;20043;-69
2022/09/08 09:22:21;;;;;;;3.55;1.27;;;21.10;93.80;;;;;;5109302;28;20047;-69
2022/09/08 09:25:25;;;;;;;4.00;1.60;;;20.20;92.70;;;;;;5097545;28;20035;-69
2022/09/08 09:28:03;;;;;;;4.25;1.40;;;19.30;95.40;;;;;;5065169;28;20089;-68
2022/09/08 09:30:51;;;;;;;6.32;1.70;;;18.70;95.30;;;;;;5101553;28;20020;-67
2022/09/08 09:34:12;;;;;;;4.32;1.50;;;18.50;95.80;;;;;;5076244;28;20096;-67
2022/09/08 09:36:56;;;;;;;6.20;1.40;;;18.10;97.00;;;;;;5041467;28;20061;-67
2022/09/08 09:40:01;;;;;;;4.22;1.80;;;18.20;96.70;;;;;;5117805;28;20019;-67
2022/09/08 09:43:02;;;;;;;5.00;1.77;;;18.20;97.40;;;;;;5058997;28;20079;-69
2022/09/08 09:46:08;;;;;;;5.07;1.80;;;18.60;97.30;;;;;;5097514;28;20059;-69
2022/09/08 09:48:58;;;;;;;6.30;1.60;;;19.00;96.00;;;;;;5097352;28;20076;-69
2022/09/08 09:51:32;;;;;;;4.25;1.60;;;18.70;96.20;;;;;;5107297;28;20016;-68
2022/09/08 09:54:09;;;;;;;5.45;1.60;;;18.30;96.40;;;;;;5097178;28;20012;-68
2022/09/08 09:56:53;;;;;;;4.75;1.80;;;18.10;97.80;;;;;;5114067;28;20058;-68
2022/09/08 09:59:59;;;;;;;3.88;1.55;;;17.90;97.40;;;;;;5110126;28;20023;-69
2022/09/08 10:02:56;;;;;;;3.67;1.35;;;18.50;97.60;;;;;;5103714;28;20053;-68
2022/09/08 10:06:11;;;;;;;5.10;1.40;;;19.60;95.10;;;;;;5099405;28;20466;-68
2022/09/08 10:08:48;;;;;;;4.53;1.10;;;20.90;90.50;;;;;;5117373;28;20023;-68
2022/09/08 10:11:28;;;;;;;4.60;1.40;;;21.80;88.30;;;;;;5097365;28;20032;-68
2022/09/08 10:14:15;;;;;;;3.65;1.10;;;21.80;86.30;;;;;;5097044;28;20031;-68
2022/09/08 10:17:20;;;;;;;3.88;1.30;;;21.20;86.40;;;;;;5101275;28;20028;-67
2022/09/08 10:19:57;;;;;;;4.55;1.50;;;21.20;87.70;;;;;;5098305;28;20028;-67
2022/09/08 10:23:01;;;;;;;5.60;1.50;;;21.50;85.50;;;;;;5096829;28;20039;-68
2022/09/08 10:25:38;;;;;;;3.35;1.35;;;20.60;87.40;;;;;;5096520;28;20055;-68
2022/09/08 10:28:15;;;;;;;4.18;1.30;;;20.50;87.90;;;;;;5095492;28;20076;-68
2022/09/08 10:31:08;;;;;;;5.78;1.20;;;21.10;87.70;;;;;;5097877;28;20012;-68
2022/09/08 10:33:46;;;;;;;6.03;1.40;;;21.80;85.70;;;;;;5100048;28;20062;-68
2022/09/08 10:36:12;;;;;;;4.78;1.08;;;21.30;83.90;;;;;;5112483;28;20306;-68
2022/09/08 10:39:03;;;;;;;4.07;1.27;;;20.40;86.10;;;;;;5115965;28;20313;-67
2022/09/08 10:41:59;;;;;;;3.47;1.25;;;19.80;88.10;;;;;;5096395;28;20027;-68
2022/09/08 10:44:49;;;;;;;3.33;1.10;;;20.20;87.10;;;;;;5094434;28;20020;-68
2022/09/08 10:47:20;;;;;;;2.97;1.10;;;20.00;87.00;;;;;;5096344;28;20031;-68
2022/09/08 10:50:19;;;;;;;5.25;1.08;;;19.90;87.80;;;;;;5097985;28;20099;-68
2022/09/08 10:53:03;;;;;;;4.30;1.88;;;20.00;86.80;;;;;;5096213;28;20021;-68
2022/09/08 10:55:50;;;;;;;6.20;1.60;;;19.40;88.20;;;;;;5096038;28;20071;-68
2022/09/08 10:58:35;;;;;;;4.30;1.45;;;19.10;89.20;;;;;;5095074;28;20409;-68
2022/09/08 11:01:31;;;;;;;3.85;1.83;;;19.30;89.80;;;;;;5107847;28;20028;-68
2022/09/08 11:04:32;;;;;;;5.07;1.40;;;20.10;86.20;;;;;;5106504;28;20028;-68
2022/09/08 11:07:06;;;;;;;2.50;0.80;;;20.40;84.00;;;;;;5108670;28;20429;-68
2022/09/08 11:09:34;;;;;;;4.88;1.58;;;21.80;79.00;;;;;;5096038;28;20020;-68
2022/09/08 11:12:26;;;;;;;3.28;1.20;;;22.90;78.40;;;;;;5096057;28;20016;-68
2022/09/08 11:15:23;;;;;;;3.00;1.23;;;22.90;77.00;;;;;;5073961;28;20028;-68
2022/09/08 11:17:51;;;;;;;5.32;1.20;;;22.80;74.10;;;;;;5106407;28;20385;-68
2022/09/08 11:20:50;;;;;;;5.05;0.90;;;21.80;73.70;;;;;;5101505;28;20047;-68
2022/09/08 11:23:52;;;;;;;2.38;0.90;;;21.30;77.40;;;;;;5096048;28;20481;-68
2022/09/08 11:26:32;;;;;;;5.13;1.20;;;22.00;76.50;;;;;;5095876;28;20317;-68
2022/09/08 11:29:01;;;;;;;3.13;1.35;;;22.20;76.20;;;;;;5098319;28;20046;-68
2022/09/08 11:31:55;;;;;;;5.43;1.30;;;21.70;77.70;;;;;;5095654;28;20431;-68
2022/09/08 11:34:39;;;;;;;4.13;0.95;;;22.20;76.70;;;;;;5095942;28;20036;-68
2022/09/08 11:37:24;;;;;;;2.05;0.82;;;23.00;73.10;;;;;;5107079;28;20031;-68
2022/09/08 11:39:56;;;;;;;;;;;22.40;74.40;;;;;;5116504;28;20020;-66
2022/09/08 11:42:49;;;;;;;2.88;0.80;;;20.90;76.10;;;;;;5114971;28;19904;-67
2022/09/08 11:45:45;;;;;;;3.70;0.82;;;20.90;78.50;;;;;;5116100;28;20028;-66
2022/09/08 11:48:43;;;;;;;2.30;0.90;;;21.70;76.10;;;;;;5115391;28;20044;-67
2022/09/08 11:51:33;;;;;;;4.07;1.10;;;22.10;75.30;;;;;;5102166;28;20025;-68
2022/09/08 11:54:26;;;;;;;2.60;0.80;;;22.20;73.10;;;;;;5096237;28;20024;-68
2022/09/08 11:57:09;;;;;;;3.15;1.00;;;22.80;71.30;;;;;;5107185;28;20054;-68
2022/09/08 11:59:53;;;;;;;2.67;0.70;;;22.90;72.00;;;;;;5119510;28;20035;-68
2022/09/08 12:02:32;;;;;;;2.78;0.88;;;23.10;70.40;;;;;;5117277;28;20028;-67
2022/09/08 12:05:16;;;;;;;2.42;0.68;;;22.90;70.60;;;;;;5099295;28;20405;-68
2022/09/08 12:08:21;;;;;;;4.00;1.10;;;22.90;70.90;;;;;;5101162;28;20103;-68
2022/09/08 12:10:59;;;;;;;3.33;0.98;;;22.50;70.80;;;;;;5099305;28;20043;-68
2022/09/08 12:13:46;;;;;;;2.35;0.80;;;22.40;71.00;;;;;;5098108;28;20056;-68
2022/09/08 12:16:35;;;;;;;3.10;1.00;;;22.60;71.30;;;;;;5099117;28;20032;-68
2022/09/08 12:19:25;;;;;;;4.95;0.95;;;22.90;71.40;;;;;;5102106;28;20076;-68
2022/09/08 12:22:11;;;;;;;4.82;1.00;;;23.70;69.80;;;;;;5106544;28;20072;-68
2022/09/08 12:24:53;;;;;;;5.63;1.02;;;24.00;68.20;;;;;;5098933;28;20073;-67
2022/09/08 12:27:21;;;;;;;3.90;1.00;;;23.40;68.00;;;;;;5097828;28;20035;-67
2022/09/08 12:30:05;;;;;;;5.85;1.02;;;22.50;69.30;;;;;;5113031;28;20084;-67
2022/09/08 12:32:30;;;;;;;4.40;0.90;;;21.80;71.10;;;;;;5119223;28;20027;-67
2022/09/08 12:35:17;;;;;;;2.65;0.80;;;22.00;71.30;;;;;;5118199;28;20356;-68
2022/09/08 12:38:03;;;;;;;4.50;0.90;;;22.30;71.30;;;;;;5103202;28;20371;-68
2022/09/08 12:41:01;;;;;;;2.60;0.90;;;22.20;72.50;;;;;;5118757;28;20114;-68
2022/09/08 12:43:39;;;;;;;6.97;1.30;;;22.30;73.10;;;;;;5100553;28;20024;-68
2022/09/08 12:46:30;;;;;;;3.88;1.10;;;22.70;71.00;;;;;;5098439;28;20078;-68
2022/09/08 12:49:23;;;;;;;2.70;0.90;;;22.90;70.40;;;;;;5100457;28;20020;-68
2022/09/08 12:51:54;;;;;;;3.95;1.10;;;23.30;69.80;;;;;;5098638;28;20031;-68
2022/09/08 12:54:35;;;;;;;5.20;1.00;;;23.50;69.20;;;;;;5098293;28;20062;-68
2022/09/08 12:57:13;;;;;;;4.78;1.00;;;23.90;69.90;;;;;;5098252;28;20428;-68
2022/09/08 13:00:07;;;;;;;5.85;1.15;;;24.10;67.90;;;;;;5108994;28;20024;-68
2022/09/08 13:02:38;;;;;;;4.63;1.10;;;24.10;67.20;;;;;;5118745;28;20533;-68
2022/09/08 13:05:37;;;;;;;3.03;0.80;;;23.50;68.80;;;;;;5106258;28;20035;-68
2022/09/08 13:08:15;;;;;;;3.45;0.93;;;23.00;67.90;;;;;;5098072;28;20031;-68
2022/09/08 13:10:44;;;;;;;3.13;0.80;;;23.40;67.30;;;;;;5100314;28;20031;-68
2022/09/08 13:13:34;;;;;;;1.92;0.70;;;23.20;67.00;;;;;;5097014;28;20027;-68
2022/09/08 13:16:08;;;;;;;4.72;1.00;;;23.50;67.60;;;;;;5098159;28;20035;-68
2022/09/08 13:18:39;;;;;;;5.50;1.00;;;23.40;67.70;;;;;;5101023;28;20051;-68
2022/09/08 13:21:19;;;;;;;5.82;1.50;;;22.50;70.70;;;;;;5118372;28;20050;-68
2022/09/08 13:24:10;;;;;;;6.22;1.70;;;21.60;71.50;;;;;;5118489;28;20086;-68
2022/09/08 13:26:55;;;;;;;3.97;1.38;;;21.10;73.90;;;;;;5115193;28;20039;-67
2022/09/08 13:29:31;;;;;;;;;;;20.90;74.30;;;;;;5101132;28;20095;-67
2022/09/08 13:32:11;;;;;;;3.00;0.90;;;20.90;74.80;;;;;;5111233;28;19907;-68
2022/09/08 13:35:04;;;;;;;3.80;0.82;;;21.60;73.80;;;;;;5106669;28;20067;-68
2022/09/08 13:37:39;;;;;;;2.00;0.63;;;22.90;70.30;;;;;;5104017;28;20023;-68
2022/09/08 13:40:25;;;;;;;3.75;0.80;;;23.80;69.10;;;;;;5117193;28;20023;-68